Time;durP1;ratioP1;P1;durP2;ratioP2;P2;SDS_P1;SDS_P2;PMS_P1;PMS_P2;Temp;Humidity;BMP_temperature;BMP_pressure;BME280_temperature;BME280_humidity;BME280_pressure;Samples;Min_cycle;Max_cycle;Signal;HPM_P1;HPM_P2
2022/09/19 00:00:02;;;;;;;;;;;12.80;74.10;;;;;;5067911;28;19958;-61
2022/09/19 00:02:28;;;;;;;;;;;12.70;74.10;;;;;;5070463;28;20031;-61
2022/09/19 00:04:53;;;;;;;;;;;12.70;73.40;;;;;;5066016;28;19974;-59
2022/09/19 00:07:19;;;;;;;;;;;12.70;73.70;;;;;;5069400;28;20431;-60
2022/09/19 00:09:44;;;;;;;;;;;12.70;74.60;;;;;;5066204;28;19955;-61
2022/09/19 00:12:10;;;;;;;;;;;12.70;74.20;;;;;;5063790;28;19981;-60
2022/09/19 00:14:36;;;;;;;;;;;12.60;74.00;;;;;;5069178;28;19989;-61
2022/09/19 00:17:03;;;;;;;;;;;12.60;75.10;;;;;;5071532;28;20367;-61
2022/09/19 00:19:28;;;;;;;;;;;12.60;75.00;;;;;;5071365;28;19948;-59
2022/09/19 00:21:56;;;;;;;;;;;12.50;74.80;;;;;;5070704;28;20391;-61
2022/09/19 00:27:07;;;;;;;;;;;12.50;75.10;;;;;;5067896;28;20656;-59
2022/09/19 00:29:33;;;;;;;;;;;12.40;75.10;;;;;;5070784;28;19912;-60
2022/09/19 00:31:59;;;;;;;;;;;12.40;75.40;;;;;;5069814;28;19924;-61
2022/09/19 00:34:25;;;;;;;;;;;12.40;75.10;;;;;;5068437;28;19917;-60
2022/09/19 00:36:51;;;;;;;;;;;12.40;75.30;;;;;;5064436;28;19913;-61
2022/09/19 00:39:18;;;;;;;;;;;12.40;75.90;;;;;;5065539;28;19924;-59
2022/09/19 00:41:44;;;;;;;;;;;12.40;76.00;;;;;;5068025;28;19912;-62
2022/09/19 00:44:21;;;;;;;;;;;12.40;75.80;;;;;;5068221;28;19912;-61
2022/09/19 00:46:49;;;;;;;;;;;12.30;75.80;;;;;;5070629;28;19998;-59
2022/09/19 00:49:15;;;;;;;;;;;12.30;75.80;;;;;;5069026;28;20226;-60
2022/09/19 00:51:45;;;;;;;;;;;12.30;75.20;;;;;;5066090;28;19971;-61
2022/09/19 00:54:13;;;;;;;;;;;12.30;75.40;;;;;;5070209;28;19919;-58
2022/09/19 00:56:41;;;;;;;;;;;12.30;75.10;;;;;;5069585;28;20431;-60
2022/09/19 00:59:08;;;;;;;;;;;12.20;75.30;;;;;;5068190;28;19913;-59
2022/09/19 01:01:34;;;;;;;;;;;12.20;75.00;;;;;;5071460;28;19916;-59
2022/09/19 01:04:01;;;;;;;;;;;12.20;74.80;;;;;;5066480;28;19923;-60
2022/09/19 01:06:45;;;;;;;;;;;12.20;75.40;;;;;;5066667;28;19912;-61
2022/09/19 01:09:30;;;;;;;;;;;12.20;75.10;;;;;;5066853;28;20006;-60
2022/09/19 01:12:03;;;;;;;;;;;12.20;75.60;;;;;;5062809;28;20451;-62
2022/09/19 01:14:53;;;;;;;;;;;12.10;75.90;;;;;;5065428;28;20014;-60
2022/09/19 01:17:26;;;;;;;;;;;12.10;75.80;;;;;;5068946;28;19916;-61
2022/09/19 01:20:03;;;;;;;;;;;12.10;76.00;;;;;;5067317;28;19920;-61
2022/09/19 01:22:48;;;;;;;;;;;12.10;76.50;;;;;;5065573;28;20689;-62
2022/09/19 01:25:16;;;;;;;;;;;12.00;77.00;;;;;;5065884;28;20104;-60
2022/09/19 01:27:48;;;;;;;;;;;12.00;76.70;;;;;;5066794;28;19955;-61
2022/09/19 01:30:14;;;;;;;;;;;12.00;77.50;;;;;;5068796;28;20384;-60
2022/09/19 01:32:49;;;;;;;;;;;12.00;77.80;;;;;;5067284;27;19916;-59
2022/09/19 01:35:16;;;;;;;;;;;11.90;78.00;;;;;;5070470;28;20464;-58
2022/09/19 01:37:47;;;;;;;;;;;11.90;79.10;;;;;;5072316;28;19916;-60
2022/09/19 01:40:13;;;;;;;;;;;11.80;79.00;;;;;;5073321;28;20604;-59
2022/09/19 01:42:49;;;;;;;;;;;11.70;79.50;;;;;;5073024;28;19920;-59
2022/09/19 01:45:14;;;;;;;;;;;11.70;80.30;;;;;;5069892;28;19927;-60
2022/09/19 01:48:00;;;;;;;;;;;11.60;79.30;;;;;;5073320;28;19913;-59
2022/09/19 01:50:45;;;;;;;;;;;11.60;80.30;;;;;;5068877;28;19924;-59
2022/09/19 01:53:33;;;;;;;;;;;11.50;80.90;;;;;;5071771;28;19912;-60
2022/09/19 01:56:21;;;;;;;;;;;11.50;80.40;;;;;;5070426;28;19922;-60
2022/09/19 01:59:07;;;;;;;;;;;11.50;81.30;;;;;;5068614;28;19912;-58
2022/09/19 02:01:33;;;;;;;;;;;11.40;80.50;;;;;;5063259;28;19930;-61
2022/09/19 02:04:03;;;;;;;;;;;11.40;81.10;;;;;;5070503;28;19966;-60
2022/09/19 02:06:37;;;;;;;;;;;11.40;81.10;;;;;;5073972;28;19923;-59
2022/09/19 02:09:03;;;;;;;;;;;11.40;80.30;;;;;;5070628;28;20332;-59
2022/09/19 02:11:29;;;;;;;;;;;11.40;80.50;;;;;;5069886;28;19912;-61
2022/09/19 02:13:57;;;;;;;;;;;11.30;80.10;;;;;;5067797;28;19920;-60
2022/09/19 02:16:30;;;;;;;;;;;11.30;80.70;;;;;;5072460;28;20432;-60
2022/09/19 02:19:14;;;;;;;;;;;11.30;80.00;;;;;;5070168;28;19924;-58
2022/09/19 02:21:41;;;;;;;;;;;11.30;80.30;;;;;;5071318;28;19923;-59
2022/09/19 02:24:10;;;;;;;;;;;11.30;80.50;;;;;;5072414;28;19983;-60
2022/09/19 02:26:39;;;;;;;;;;;11.20;79.70;;;;;;5068147;28;20195;-58
2022/09/19 02:29:07;;;;;;;;;;;11.20;79.60;;;;;;5071264;28;20365;-59
2022/09/19 02:31:32;;;;;;;;;;;11.20;79.50;;;;;;5071147;28;19923;-60
2022/09/19 02:33:59;;;;;;;;;;;11.20;79.10;;;;;;5071452;28;19916;-60
2022/09/19 02:36:33;;;;;;;;;;;11.10;78.90;;;;;;5068993;27;20399;-59
2022/09/19 02:39:08;;;;;;;;;;;11.10;78.90;;;;;;5072027;28;19922;-60
2022/09/19 02:41:36;;;;;;;;;;;11.10;78.40;;;;;;5073513;28;19923;-60
2022/09/19 02:44:19;;;;;;;;;;;11.10;78.20;;;;;;5071363;28;20000;-60
2022/09/19 02:46:48;;;;;;;;;;;11.10;78.00;;;;;;5069289;28;19994;-58
2022/09/19 02:49:16;;;;;;;;;;;11.10;77.90;;;;;;5068899;28;20371;-59
2022/09/19 02:51:48;;;;;;;;;;;11.10;78.40;;;;;;5070318;28;19915;-59
2022/09/19 02:54:19;;;;;;;;;;;11.10;77.60;;;;;;5067768;28;19999;-60
2022/09/19 02:56:45;;;;;;;;;;;11.10;77.80;;;;;;5070330;28;20411;-58
2022/09/19 02:59:12;;;;;;;;;;;11.00;77.50;;;;;;5071688;28;19912;-59
2022/09/19 03:01:40;;;;;;;;;;;11.00;77.60;;;;;;5070253;28;19923;-61
2022/09/19 03:04:14;;;;;;;;;;;10.90;77.50;;;;;;5069189;28;20338;-59
2022/09/19 03:06:49;;;;;;;;;;;10.90;77.70;;;;;;5076365;28;20407;-59
2022/09/19 03:09:17;;;;;;;;;;;10.90;77.50;;;;;;5069498;28;20364;-61
2022/09/19 03:11:47;;;;;;;;;;;10.80;77.90;;;;;;5066520;28;20402;-60
2022/09/19 03:14:12;;;;;;;;;;;10.70;77.90;;;;;;5069583;28;19977;-61
2022/09/19 03:16:42;;;;;;;;;;;10.70;77.90;;;;;;5068914;28;20369;-59
2022/09/19 03:19:08;;;;;;;;;;;10.60;77.70;;;;;;5071476;28;19923;-60
2022/09/19 03:21:34;;;;;;;;;;;10.60;77.90;;;;;;5067491;28;22440;-61
2022/09/19 03:24:00;;;;;;;;;;;10.60;77.90;;;;;;5069529;28;19917;-60
2022/09/19 03:26:32;;;;;;;;;;;10.50;77.90;;;;;;5064289;28;20003;-61
2022/09/19 03:28:58;;;;;;;;;;;10.40;77.50;;;;;;5068838;28;19920;-60
2022/09/19 03:31:24;;;;;;;;;;;10.40;77.30;;;;;;5066725;28;19998;-61
2022/09/19 03:33:51;;;;;;;;;;;10.40;77.20;;;;;;5068163;28;20367;-61
2022/09/19 03:36:17;;;;;;;;;;;10.30;77.10;;;;;;5070295;28;20342;-61
2022/09/19 03:38:45;;;;;;;;;;;10.30;77.10;;;;;;5068952;28;20009;-61
2022/09/19 03:41:12;;;;;;;;;;;10.30;76.80;;;;;;5069340;28;19915;-60
2022/09/19 03:43:37;;;;;;;;;;;10.30;76.60;;;;;;5070054;28;19932;-59
2022/09/19 03:46:03;;;;;;;;;;;10.30;76.50;;;;;;5066941;28;20008;-61
2022/09/19 03:48:31;;;;;;;;;;;10.30;76.30;;;;;;5070294;28;20298;-58
2022/09/19 03:51:00;;;;;;;;;;;10.30;76.10;;;;;;5066425;28;19947;-61
2022/09/19 03:53:26;;;;;;;;;;;10.40;76.10;;;;;;5068197;28;20297;-60
2022/09/19 03:55:52;;;;;;;;;;;10.40;76.00;;;;;;5067686;28;19920;-59
2022/09/19 03:58:17;;;;;;;;;;;10.40;75.80;;;;;;5065663;28;19916;-59
2022/09/19 04:00:43;;;;;;;;;;;10.40;75.80;;;;;;5068323;28;19916;-60
2022/09/19 04:03:08;;;;;;;;;;;10.50;75.70;;;;;;5068710;28;19920;-61
2022/09/19 04:05:34;;;;;;;;;;;10.40;75.40;;;;;;5070041;28;19923;-60
2022/09/19 04:08:00;;;;;;;;;;;10.40;75.40;;;;;;5070341;28;20542;-60
2022/09/19 04:10:26;;;;;;;;;;;10.40;75.30;;;;;;5064619;28;19920;-61
2022/09/19 04:12:52;;;;;;;;;;;10.40;75.40;;;;;;5066451;28;20543;-60
2022/09/19 04:15:17;;;;;;;;;;;10.30;75.20;;;;;;5067505;28;19920;-60
2022/09/19 04:17:43;;;;;;;;;;;10.30;75.40;;;;;;5069040;28;19990;-60
2022/09/19 04:20:10;;;;;;;;;;;10.30;75.70;;;;;;5065584;28;19947;-57
2022/09/19 04:22:37;;;;;;;;;;;10.20;75.50;;;;;;5069393;28;20555;-60
2022/09/19 04:25:04;;;;;;;;;;;10.20;75.70;;;;;;5067983;28;20486;-60
2022/09/19 04:27:29;;;;;;;;;;;10.20;75.80;;;;;;5069193;28;19912;-60
2022/09/19 04:29:55;;;;;;;;;;;10.10;75.90;;;;;;5062666;28;20499;-59
2022/09/19 04:32:21;;;;;;;;;;;10.10;75.80;;;;;;5052563;28;19973;-59
2022/09/19 04:34:47;;;;;;;;;;;10.10;75.60;;;;;;5060353;28;19943;-60
2022/09/19 04:37:14;;;;;;;;;;;10.00;75.40;;;;;;5063182;28;19916;-60
2022/09/19 04:39:40;;;;;;;;;;;10.00;75.40;;;;;;5057890;28;19926;-61
2022/09/19 04:42:05;;;;;;;;;;;10.10;75.40;;;;;;5067029;28;19920;-61
2022/09/19 04:44:31;;;;;;;;;;;10.00;75.40;;;;;;5061866;28;19916;-61
2022/09/19 04:46:56;;;;;;;;;;;10.00;75.40;;;;;;5069209;28;19920;-58
2022/09/19 04:49:22;;;;;;;;;;;10.10;75.40;;;;;;5066749;28;19931;-61
2022/09/19 04:51:47;;;;;;;;;;;10.10;75.60;;;;;;5069270;28;20023;-61
2022/09/19 04:54:14;;;;;;;;;;;10.00;75.40;;;;;;5069722;28;19920;-59
2022/09/19 04:56:43;;;;;;;;;;;10.10;75.60;;;;;;5071370;28;20370;-60
2022/09/19 04:59:10;;;;;;;;;;;10.00;75.50;;;;;;5069964;28;20481;-61
2022/09/19 05:01:36;;;;;;;;;;;10.00;75.80;;;;;;5068810;28;19912;-59
2022/09/19 05:04:03;;;;;;;;;;;10.00;75.70;;;;;;5067869;28;20265;-60
2022/09/19 05:06:29;;;;;;;;;;;9.90;75.40;;;;;;5069800;28;19916;-60
2022/09/19 05:08:55;;;;;;;;;;;9.90;75.70;;;;;;5071174;28;20598;-59
2022/09/19 05:11:21;;;;;;;;;;;9.90;75.60;;;;;;5073769;28;20390;-60
2022/09/19 05:13:48;;;;;;;;;;;9.90;75.80;;;;;;5071300;28;19923;-59
2022/09/19 05:16:15;;;;;;;;;;;9.90;75.70;;;;;;5069553;28;19920;-61
2022/09/19 05:18:41;;;;;;;;;;;9.80;75.60;;;;;;5070277;28;19989;-60
2022/09/19 05:21:09;;;;;;;;;;;9.80;75.80;;;;;;5069915;28;20387;-59
2022/09/19 05:23:36;;;;;;;;;;;9.80;75.60;;;;;;5073059;28;20011;-61
2022/09/19 05:26:05;;;;;;;;;;;9.70;75.60;;;;;;5073000;28;19916;-60
2022/09/19 05:28:31;;;;;;;;;;;9.70;75.70;;;;;;5073336;27;20363;-60
2022/09/19 05:30:57;;;;;;;;;;;9.70;75.80;;;;;;5074161;28;19962;-61
2022/09/19 05:33:29;;;;;;;;;;;9.70;75.80;;;;;;5073355;28;19981;-61
2022/09/19 05:36:00;;;;;;;;;;;9.70;75.90;;;;;;5068992;28;19920;-61
2022/09/19 05:38:26;;;;;;;;;;;9.70;76.10;;;;;;5072090;28;20267;-60
2022/09/19 05:40:55;;;;;;;;;;;9.70;76.30;;;;;;5071683;28;19999;-61
2022/09/19 05:43:21;;;;;;;;;;;9.70;76.70;;;;;;5068429;28;20407;-60
2022/09/19 05:45:48;;;;;;;;;;;9.80;76.60;;;;;;5072096;27;19916;-58
2022/09/19 05:48:14;;;;;;;;;;;9.80;76.60;;;;;;5073457;28;20007;-60
2022/09/19 05:50:41;;;;;;;;;;;9.80;76.90;;;;;;5069876;28;19912;-60
2022/09/19 05:55:52;;;;;;;;;;;9.80;77.00;;;;;;5067013;28;19927;-60
2022/09/19 05:58:18;;;;;;;;;;;9.90;77.90;;;;;;5071376;28;19916;-60
2022/09/19 06:00:43;;;;;;;;;;;9.90;77.30;;;;;;5072682;28;19996;-60
2022/09/19 06:03:11;;;;;;;;;;;9.90;76.90;;;;;;5068980;28;19958;-62
2022/09/19 06:05:38;;;;;;;;;;;9.90;76.80;;;;;;5070938;28;19926;-62
2022/09/19 06:08:04;;;;;;;;;;;9.90;76.80;;;;;;5069448;28;19924;-59
2022/09/19 06:10:32;;;;;;;;;;;9.90;76.80;;;;;;5068176;28;20398;-58
2022/09/19 06:12:58;;;;;;;;;;;9.90;77.10;;;;;;5067736;28;20033;-60
2022/09/19 06:15:23;;;;;;;;;;;9.90;76.90;;;;;;5069837;27;19920;-61
2022/09/19 06:17:55;;;;;;;;;;;9.90;76.90;;;;;;5072372;28;19912;-61
2022/09/19 06:20:21;;;;;;;;;;;10.00;76.70;;;;;;5071751;28;20161;-61
2022/09/19 06:22:47;;;;;;;;;;;10.00;77.10;;;;;;5071861;28;19927;-60
2022/09/19 06:25:13;;;;;;;;;;;10.00;76.90;;;;;;5068015;28;20240;-62
2022/09/19 06:27:39;;;;;;;;;;;10.00;77.10;;;;;;5068712;28;19919;-61
2022/09/19 06:30:05;;;;;;;;;;;10.10;77.60;;;;;;5070945;28;19928;-60
2022/09/19 06:32:31;;;;;;;;;;;10.10;78.20;;;;;;5069930;28;19916;-62
2022/09/19 06:34:56;;;;;;;;;;;10.20;77.90;;;;;;5071586;28;19920;-61
2022/09/19 06:37:22;;;;;;;;;;;10.30;78.40;;;;;;5070683;28;19931;-61
2022/09/19 06:39:47;;;;;;;;;;;10.30;78.00;;;;;;5071067;28;19920;-59
2022/09/19 06:42:13;;;;;;;;;;;10.30;77.90;;;;;;5073781;28;20440;-61
2022/09/19 06:44:38;;;;;;;;;;;10.40;77.70;;;;;;5067566;28;19920;-60
2022/09/19 06:47:05;;;;;;;;;;;10.40;77.30;;;;;;5072439;28;19943;-58
2022/09/19 06:49:31;;;;;;;;;;;10.50;77.30;;;;;;5073285;28;20375;-60
2022/09/19 06:51:57;;;;;;;;;;;10.50;77.00;;;;;;5070355;27;19927;-60
2022/09/19 06:54:23;;;;;;;;;;;10.60;76.80;;;;;;5070049;28;19916;-60
2022/09/19 06:56:49;;;;;;;;;;;10.60;76.60;;;;;;5067126;28;19924;-61
2022/09/19 06:59:15;;;;;;;;;;;10.70;76.50;;;;;;5067885;27;19920;-61
2022/09/19 07:01:40;;;;;;;;;;;10.70;76.00;;;;;;5067915;28;20032;-60
2022/09/19 07:04:06;;;;;;;;;;;10.70;76.00;;;;;;5067417;28;20022;-61
2022/09/19 07:06:34;;;;;;;;;;;10.80;75.80;;;;;;5068342;28;20509;-60
2022/09/19 07:09:00;;;;;;;;;;;10.80;75.70;;;;;;5063379;28;20064;-60
2022/09/19 07:11:26;;;;;;;;;;;10.80;75.40;;;;;;5061817;28;20224;-60
2022/09/19 07:13:51;;;;;;;;;;;10.90;75.60;;;;;;5068733;28;19923;-61
2022/09/19 07:16:17;;;;;;;;;;;10.80;75.20;;;;;;5066672;28;20778;-60
2022/09/19 07:18:42;;;;;;;;;;;10.90;75.40;;;;;;5067092;28;21972;-60
2022/09/19 07:21:08;;;;;;;;;;;10.90;75.30;;;;;;5066232;28;19920;-60
2022/09/19 07:23:33;;;;;;;;;;;10.90;75.40;;;;;;5068653;28;19924;-61
2022/09/19 07:26:00;;;;;;;;;;;11.00;75.30;;;;;;5067995;28;20622;-59
2022/09/19 07:28:26;;;;;;;;;;;11.00;75.10;;;;;;5068541;28;19918;-61
2022/09/19 07:30:52;;;;;;;;;;;11.00;75.10;;;;;;5066118;28;19916;-61
2022/09/19 07:33:22;;;;;;;;;;;11.10;75.10;;;;;;5067110;28;20418;-62
2022/09/19 07:35:48;;;;;;;;;;;11.10;75.30;;;;;;5069415;28;19927;-61
2022/09/19 07:38:14;;;;;;;;;;;11.20;75.40;;;;;;5068055;28;20518;-61
2022/09/19 07:40:40;;;;;;;;;;;11.20;75.20;;;;;;5069667;28;20007;-62
2022/09/19 07:43:06;;;;;;;;;;;11.20;75.20;;;;;;5067247;28;20260;-58
2022/09/19 07:45:32;;;;;;;;;;;11.30;75.10;;;;;;5069399;28;20290;-62
2022/09/19 07:47:58;;;;;;;;;;;11.30;75.00;;;;;;5067211;28;19920;-62
2022/09/19 07:50:23;;;;;;;;;;;11.40;75.70;;;;;;5069680;28;19970;-59
2022/09/19 07:52:57;;;;;;;;;;;11.50;74.90;;;;;;5069641;28;20387;-61
2022/09/19 07:55:24;;;;;;;;;;;11.50;74.70;;;;;;5067703;28;20038;-60
2022/09/19 07:57:50;;;;;;;;;;;11.50;74.10;;;;;;5066716;28;20605;-61
2022/09/19 08:00:16;;;;;;;;;;;11.50;74.20;;;;;;5066349;28;19919;-60
2022/09/19 08:02:42;;;;;;;;;;;11.60;74.30;;;;;;5062854;28;19927;-59
2022/09/19 08:05:07;;;;;;;;;;;11.70;75.30;;;;;;5068954;28;19916;-61
2022/09/19 08:07:33;;;;;;;;;;;11.70;74.50;;;;;;5069451;27;20434;-59
2022/09/19 08:09:59;;;;;;;;;;;11.70;74.20;;;;;;5067822;28;20346;-61
2022/09/19 08:12:25;;;;;;;;;;;11.70;73.90;;;;;;5064809;28;19917;-60
2022/09/19 08:14:51;;;;;;;;;;;11.80;73.60;;;;;;5069256;28;19955;-59
2022/09/19 08:17:16;;;;;;;;;;;11.80;73.70;;;;;;5070776;28;20483;-59
2022/09/19 08:19:43;;;;;;;;;;;11.90;73.50;;;;;;5069345;28;19920;-61
2022/09/19 08:22:08;;;;;;;;;;;11.90;73.40;;;;;;5068590;28;20467;-59
2022/09/19 08:24:34;;;;;;;;;;;11.90;72.90;;;;;;5069810;28;19916;-62
2022/09/19 08:26:59;;;;;;;;;;;11.90;73.20;;;;;;5066582;28;19916;-60
2022/09/19 08:29:26;;;;;;;;;;;12.00;73.50;;;;;;5069759;28;20299;-61
2022/09/19 08:31:52;;;;;;;;;;;12.00;73.60;;;;;;5065599;28;19912;-60
2022/09/19 08:34:17;;;;;;;;;;;12.00;73.30;;;;;;5065888;28;19943;-60
2022/09/19 08:36:42;;;;;;;;;;;12.00;73.60;;;;;;5069035;28;19951;-60
2022/09/19 08:39:08;;;;;;;;;;;12.00;73.50;;;;;;5068596;28;19917;-60
2022/09/19 08:41:42;;;;;;;;;;;12.10;73.20;;;;;;5068170;28;19920;-60
2022/09/19 08:44:14;;;;;;;;;;;12.10;72.90;;;;;;5072904;28;19920;-59
2022/09/19 08:46:58;;;;;;;;;;;12.20;73.40;;;;;;5067901;27;19916;-61
2022/09/19 08:49:29;;;;;;;;;;;12.20;73.70;;;;;;5071167;28;19927;-62
2022/09/19 08:51:59;;;;;;;;;;;12.20;73.20;;;;;;5073242;28;19920;-60
2022/09/19 08:54:30;;;;;;;;;;;12.30;72.80;;;;;;5071827;28;19959;-62
2022/09/19 08:56:57;;;;;;;;;;;12.30;73.10;;;;;;5073540;28;19920;-61
2022/09/19 08:59:24;;;;;;;;;;;12.40;73.50;;;;;;5072137;28;19924;-61
2022/09/19 09:01:53;;;;;;;;;;;12.50;73.50;;;;;;5071297;28;20336;-61
2022/09/19 09:04:19;;;;;;;;;;;12.50;72.80;;;;;;5071300;28;19928;-60
2022/09/19 09:06:44;;;;;;;;;;;12.50;72.80;;;;;;5069434;28;20356;-61
2022/09/19 09:09:29;;;;;;;;;;;12.50;72.30;;;;;;5069269;28;20021;-61
2022/09/19 09:12:07;;;;;;;;;;;12.60;73.20;;;;;;5071090;28;19916;-61
2022/09/19 09:14:46;;;;;;;;;;;12.70;73.40;;;;;;5074372;28;19991;-60
2022/09/19 09:17:15;;;;;;;;;;;12.70;73.00;;;;;;5071091;28;19919;-62
2022/09/19 09:19:55;;;;;;;;;;;12.80;72.70;;;;;;5073587;28;19924;-60
2022/09/19 09:22:36;;;;;;;;;;;12.90;72.60;;;;;;5073380;28;20291;-61
2022/09/19 09:25:18;;;;;;;;;;;13.00;72.90;;;;;;5070137;28;19931;-60
2022/09/19 09:27:57;;;;;;;;;;;13.10;73.00;;;;;;5070310;28;19916;-61
2022/09/19 09:30:22;;;;;;;;;;;13.10;72.20;;;;;;5071671;28;19920;-60
2022/09/19 09:32:56;;;;;;;;;;;13.20;72.10;;;;;;5071463;28;20139;-61
2022/09/19 09:35:34;;;;;;;;;;;13.20;72.10;;;;;;5069915;28;19916;-60
2022/09/19 09:38:04;;;;;;;;;;;13.30;72.10;;;;;;5076127;28;20020;-61
2022/09/19 09:43:28;;;;;;;;;;;13.40;72.10;;;;;;5073299;28;19923;-59
2022/09/19 09:45:54;;;;;;;;;;;13.50;70.90;;;;;;5073571;28;19920;-59
2022/09/19 09:48:31;;;;;;;;;;;13.50;70.10;;;;;;5071643;28;20504;-59
2022/09/19 09:51:17;;;;;;;;;;;13.50;70.00;;;;;;5070519;28;19912;-60
2022/09/19 09:53:46;;;;;;;;;;;13.50;70.70;;;;;;5068342;28;20355;-60
2022/09/19 09:56:17;;;;;;;;;;;13.50;70.90;;;;;;5069530;28;19999;-61
2022/09/19 09:58:49;;;;;;;;;;;13.50;70.10;;;;;;5064701;28;20398;-59
2022/09/19 10:04:11;;;;;;;;;;;13.50;68.60;;;;;;5068736;28;19993;-62
2022/09/19 10:06:45;;;;;;;;;;;13.50;69.70;;;;;;5072582;28;20066;-59
2022/09/19 10:09:23;;;;;;;;;;;13.60;69.50;;;;;;5073892;28;19999;-60
2022/09/19 10:11:48;;;;;;;;;;;13.50;70.20;;;;;;5070370;28;19981;-61
2022/09/19 10:14:19;;;;;;;;;;;13.60;69.40;;;;;;5074082;28;19959;-60
2022/09/19 10:16:47;;;;;;;;;;;13.60;70.30;;;;;;5076088;28;20383;-60
2022/09/19 10:19:25;;;;;;;;;;;13.70;70.70;;;;;;5074925;28;19981;-60
2022/09/19 10:21:50;;;;;;;;;;;13.70;70.70;;;;;;5076754;28;20547;-59
2022/09/19 10:24:36;;;;;;;;;;;13.70;71.00;;;;;;5074187;28;20187;-59
2022/09/19 10:27:08;;;;;;;;;;;13.80;71.00;;;;;;5075238;28;20012;-59
2022/09/19 10:29:34;;;;;;;;;;;13.80;70.80;;;;;;5073578;28;19995;-61
2022/09/19 10:32:07;;;;;;;;;;;13.80;71.00;;;;;;5073931;28;20356;-61
2022/09/19 10:34:34;;;;;;;;;;;13.80;71.30;;;;;;5075850;28;20003;-59
2022/09/19 10:37:00;;;;;;;;;;;13.80;71.80;;;;;;5074796;28;20401;-60
2022/09/19 10:39:26;;;;;;;;;;;13.90;71.10;;;;;;5068929;28;19999;-61
2022/09/19 10:41:51;;;;;;;;;;;14.00;69.80;;;;;;5069692;28;20046;-60
2022/09/19 10:44:24;;;;;;;;;;;14.10;70.00;;;;;;5070112;28;20383;-59
2022/09/19 10:47:02;;;;;;;;;;;14.10;67.80;;;;;;5067678;28;19919;-62
2022/09/19 10:49:30;;;;;;;;;;;14.20;68.90;;;;;;5074355;28;19920;-60
2022/09/19 10:51:59;;;;;;;;;;;14.40;69.10;;;;;;5073220;28;20319;-60
2022/09/19 10:54:40;;;;;;;;;;;14.50;68.90;;;;;;5073394;28;19916;-61
2022/09/19 10:57:25;;;;;;;;;;;14.60;68.60;;;;;;5073464;28;19940;-59
2022/09/19 10:59:52;;;;;;;;;;;14.70;66.60;;;;;;5070980;28;20365;-60
2022/09/19 11:02:19;;;;;;;;;;;14.70;67.40;;;;;;5069983;28;20011;-60
2022/09/19 11:05:09;;;;;;;;;;;14.70;68.00;;;;;;5071708;28;19923;-62
2022/09/19 11:07:50;;;;;;;;;;;14.80;66.70;;;;;;5071431;28;20386;-59
2022/09/19 11:10:37;;;;;;;;;;;14.80;67.60;;;;;;5070234;28;19926;-61
2022/09/19 11:13:25;;;;;;;;;;;14.80;68.20;;;;;;5066256;28;19920;-61
2022/09/19 11:16:00;;;;;;;;;;;14.90;65.80;;;;;;5069266;28;19920;-59
2022/09/19 11:18:33;;;;;;;;;;;14.90;66.70;;;;;;5068404;28;20003;-61
2022/09/19 11:21:25;;;;;;;;;;;15.00;66.80;;;;;;5070462;28;20460;-59
2022/09/19 11:24:16;;;;;;;;;;;15.00;66.40;;;;;;5066670;28;20371;-61
2022/09/19 11:26:41;;;;;;;;;;;15.10;66.70;;;;;;5069148;28;19960;-61
2022/09/19 11:29:17;;;;;;;;;;;15.10;66.60;;;;;;5067366;28;20015;-62
2022/09/19 11:31:46;;;;;;;;;;;15.20;66.60;;;;;;5072277;28;19921;-60
2022/09/19 11:34:22;;;;;;;;;;;15.20;67.30;;;;;;5068778;28;19918;-61
2022/09/19 11:37:04;;;;;;;;;;;15.30;67.10;;;;;;5070173;28;19916;-60
2022/09/19 11:39:48;;;;;;;;;;;15.30;66.00;;;;;;5068438;28;19920;-59
2022/09/19 11:42:14;;;;;;;;;;;15.30;65.70;;;;;;5071041;28;19923;-61
2022/09/19 11:44:52;;;;;;;;;;;15.40;63.10;;;;;;5069960;28;19912;-61
2022/09/19 11:47:32;;;;;;;;;;;15.40;62.90;;;;;;5070944;28;19920;-61
2022/09/19 11:50:04;;;;;;;;;;;15.40;64.70;;;;;;5072655;28;20279;-61
2022/09/19 11:52:32;;;;;;;;;;;15.40;64.20;;;;;;5070516;28;19967;-60
2022/09/19 11:55:05;;;;;;;;;;;15.50;63.80;;;;;;5066252;27;19920;-61
2022/09/19 11:57:50;;;;;;;;;;;15.50;63.60;;;;;;5070610;28;19998;-61
2022/09/19 12:00:18;;;;;;;;;;;15.50;61.80;;;;;;5068632;28;19931;-61
2022/09/19 12:02:50;;;;;;;;;;;15.40;63.30;;;;;;5068519;28;19920;-60
2022/09/19 12:05:19;;;;;;;;;;;15.30;63.60;;;;;;5067856;28;20366;-61
2022/09/19 12:07:57;;;;;;;;;;;15.30;65.50;;;;;;5067514;28;20092;-61
2022/09/19 12:10:29;;;;;;;;;;;15.20;66.30;;;;;;5068122;28;20474;-62
2022/09/19 12:13:15;;;;;;;;;;;15.00;67.20;;;;;;5042192;28;19917;-61
2022/09/19 12:15:43;;;;;;;;;;;15.00;67.60;;;;;;5048011;28;20077;-61
2022/09/19 12:18:23;;;;;;;;;;;14.90;68.00;;;;;;5059469;28;19913;-61
2022/09/19 12:20:50;;;;;;;;;;;14.90;68.30;;;;;;5064962;28;19956;-59
2022/09/19 12:26:04;;;;;;;;;;;14.90;68.60;;;;;;5066125;28;19919;-61
2022/09/19 12:28:35;;;;;;;;;;;14.90;68.60;;;;;;5069157;28;19921;-61
2022/09/19 12:31:04;;;;;;;;;;;14.90;68.40;;;;;;5066256;28;19919;-60
2022/09/19 12:33:37;;;;;;;;;;;14.90;69.70;;;;;;5066863;28;19920;-59
2022/09/19 12:36:10;;;;;;;;;;;14.90;69.20;;;;;;5066301;28;20273;-61
2022/09/19 12:38:58;;;;;;;;;;;14.90;69.20;;;;;;5061237;28;20364;-61
2022/09/19 12:41:29;;;;;;;;;;;14.80;70.20;;;;;;5068195;28;19999;-61
2022/09/19 12:44:16;;;;;;;;;;;14.80;69.60;;;;;;5069285;28;19922;-61
2022/09/19 12:46:49;;;;;;;;;;;14.80;70.20;;;;;;5066117;28;20501;-61
2022/09/19 12:49:30;;;;;;;;;;;14.80;69.70;;;;;;5069621;28;19916;-60
2022/09/19 12:52:01;;;;;;;;;;;14.80;69.50;;;;;;5069039;28;19997;-60
2022/09/19 12:54:33;;;;;;;;;;;14.70;69.70;;;;;;5067464;28;19912;-60
2022/09/19 12:57:04;;;;;;;;;;;14.70;69.90;;;;;;5068963;28;20017;-60
2022/09/19 12:59:33;;;;;;;;;;;14.70;70.10;;;;;;5069636;28;19920;-60
2022/09/19 13:02:12;;;;;;;;;;;14.70;70.20;;;;;;5066327;28;19923;-59
2022/09/19 13:04:59;;;;;;;;;;;14.70;70.00;;;;;;5068674;28;19928;-60
2022/09/19 13:07:30;;;;;;;;;;;14.80;70.40;;;;;;5069133;28;19919;-59
2022/09/19 13:09:55;;;;;;;;;;;14.80;70.60;;;;;;5071304;28;19916;-60
2022/09/19 13:12:25;;;;;;;;;;;14.90;70.80;;;;;;5066682;28;19916;-61
2022/09/19 13:14:55;;;;;;;;;;;14.90;70.70;;;;;;5065655;28;20270;-61
2022/09/19 13:25:44;;;;;;;;;;;15.10;68.90;;;;;;5067786;28;20531;-60
2022/09/19 13:28:19;;;;;;;;;;;15.20;69.90;;;;;;5068923;28;19924;-59
2022/09/19 13:30:51;;;;;;;;;;;15.10;69.20;;;;;;5067293;28;19916;-59
2022/09/19 13:33:21;;;;;;;;;;;15.20;69.10;;;;;;5068801;28;19978;-59
2022/09/19 13:35:49;;;;;;;;;;;15.10;67.70;;;;;;5071300;28;20417;-60
2022/09/19 13:38:26;;;;;;;;;;;15.10;68.50;;;;;;5070979;28;19919;-61
2022/09/19 13:41:04;;;;;;;;;;;15.10;69.50;;;;;;5068175;28;19924;-60
2022/09/19 13:43:35;;;;;;;;;;;15.00;69.50;;;;;;5073011;28;20375;-60
2022/09/19 13:46:15;;;;;;;;;;;14.90;69.20;;;;;;5071582;28;19912;-60
2022/09/19 13:49:00;;;;;;;;;;;14.80;69.70;;;;;;5073437;28;19939;-59
2022/09/19 13:51:44;;;;;;;;;;;14.70;70.00;;;;;;5076946;28;19916;-59
2022/09/19 13:54:13;;;;;;;;;;;14.60;70.00;;;;;;5074112;28;20303;-60
2022/09/19 13:56:38;;;;;;;;;;;14.60;70.10;;;;;;5076868;28;19912;-60
2022/09/19 13:59:12;;;;;;;;;;;14.60;70.20;;;;;;5077409;28;19989;-61
2022/09/19 14:01:39;;;;;;;;;;;14.60;70.30;;;;;;5075539;28;19956;-59
2022/09/19 14:06:58;;;;;;;;;;;14.50;70.70;;;;;;5077568;28;19923;-62
2022/09/19 14:09:27;;;;;;;;;;;14.60;70.90;;;;;;5075231;28;19920;-59
2022/09/19 14:11:53;;;;;;;;;;;14.60;70.90;;;;;;5070264;28;19920;-60
2022/09/19 14:14:40;;;;;;;;;;;14.60;70.70;;;;;;5074580;28;20071;-62
2022/09/19 14:17:18;;;;;;;;;;;14.70;70.70;;;;;;5074708;28;19916;-60
2022/09/19 14:19:50;;;;;;;;;;;14.70;70.60;;;;;;5075201;28;19959;-60
2022/09/19 14:22:34;;;;;;;;;;;14.80;71.10;;;;;;5071929;28;20265;-61
2022/09/19 14:25:03;;;;;;;;;;;14.90;71.00;;;;;;5069938;28;19916;-60
2022/09/19 14:27:33;;;;;;;;;;;14.90;69.90;;;;;;5074787;27;20369;-59
2022/09/19 14:30:04;;;;;;;;;;;15.00;69.20;;;;;;5074893;28;20393;-60
2022/09/19 14:32:42;;;;;;;;;;;15.00;69.40;;;;;;5076219;28;19916;-59
2022/09/19 14:35:16;;;;;;;;;;;15.00;69.00;;;;;;5068756;28;19916;-61
2022/09/19 14:37:46;;;;;;;;;;;15.10;68.40;;;;;;5069222;28;19926;-61
2022/09/19 14:40:20;;;;;;;;;;;15.10;68.20;;;;;;5067711;28;19916;-60
2022/09/19 14:43:10;;;;;;;;;;;15.10;69.00;;;;;;5071675;28;19969;-60
2022/09/19 14:45:49;;;;;;;;;;;15.20;69.00;;;;;;5062831;28;19916;-58
2022/09/19 14:48:34;;;;;;;;;;;15.20;67.30;;;;;;5054241;28;19913;-60
2022/09/19 14:51:18;;;;;;;;;;;15.20;66.60;;;;;;5056743;28;19916;-61
2022/09/19 14:53:43;;;;;;;;;;;15.20;68.10;;;;;;5065439;28;19917;-61
2022/09/19 14:56:14;;;;;;;;;;;15.20;68.50;;;;;;5075056;28;19919;-60
2022/09/19 14:58:40;;;;;;;;;;;15.20;68.60;;;;;;5072087;28;19916;-61
2022/09/19 15:01:07;;;;;;;;;;;15.20;68.60;;;;;;5067183;28;20575;-60